Time;durP1;ratioP1;P1;durP2;ratioP2;P2;SDS_P1;SDS_P2;PMS_P1;PMS_P2;Temp;Humidity;BMP_temperature;BMP_pressure;BME280_temperature;BME280_humidity;BME280_pressure;Samples;Min_cycle;Max_cycle;Signal;HPM_P1;HPM_P2
2023/03/01 00:01:47;;;;;;;3.17;1.30;;;;;;;1.09;78.90;101372.25;5060806;28;20942;-51
2023/03/01 00:04:14;;;;;;;1.70;1.13;;;;;;;1.10;78.92;101379.28;5063444;28;20791;-49
2023/03/01 00:06:42;;;;;;;2.20;2.10;;;;;;;0.98;80.00;101384.19;5086313;28;20441;-49
2023/03/01 00:09:09;;;;;;;0.90;0.90;;;;;;;1.04;79.14;101369.50;5062676;28;20451;-49
2023/03/01 00:11:35;;;;;;;14.73;1.30;;;;;;;1.11;79.40;101381.06;5069953;28;21043;-49
2023/03/01 00:14:04;;;;;;;1.37;1.37;;;;;;;0.93;79.57;101386.66;5074164;28;20456;-49
2023/03/01 00:16:34;;;;;;;0.80;0.80;;;;;;;1.10;79.52;101377.56;5060562;28;20505;-50
2023/03/01 00:19:01;;;;;;;1.47;1.37;;;;;;;0.98;79.67;101378.94;5061349;28;20542;-49
2023/03/01 00:21:28;;;;;;;1.03;0.93;;;;;;;0.93;79.56;101377.91;5067981;28;20449;-49
2023/03/01 00:23:56;;;;;;;0.30;0.27;;;;;;;0.92;80.49;101374.41;5067308;28;20537;-51
2023/03/01 00:26:25;;;;;;;2.20;1.20;;;;;;;0.93;79.18;101370.94;5060804;28;20902;-49
2023/03/01 00:28:51;;;;;;;0.80;0.80;;;;;;;1.10;79.64;101374.94;5060258;28;20451;-49
2023/03/01 00:31:20;;;;;;;0.53;0.53;;;;;;;1.13;79.60;101375.00;5066005;28;20852;-49
2023/03/01 00:33:47;;;;;;;0.50;0.50;;;;;;;1.06;79.33;101378.28;5055362;28;20892;-50
2023/03/01 00:36:15;;;;;;;8.63;2.40;;;;;;;1.01;79.22;101376.41;5065390;28;20451;-49
2023/03/01 00:38:44;;;;;;;1.50;1.40;;;;;;;1.10;78.90;101374.06;5066995;28;20478;-49
2023/03/01 00:41:13;;;;;;;8.13;1.33;;;;;;;1.06;79.19;101378.28;5062650;28;20449;-49
2023/03/01 00:43:40;;;;;;;0.70;0.70;;;;;;;1.15;79.45;101370.69;5060143;28;20449;-49
2023/03/01 00:46:09;;;;;;;1.17;1.17;;;;;;;0.94;79.73;101370.09;5063982;28;20447;-49
2023/03/01 00:48:36;;;;;;;1.40;1.30;;;;;;;0.88;79.41;101369.94;5066348;28;20485;-49
2023/03/01 00:51:08;;;;;;;2.30;2.20;;;;;;;0.91;80.54;101362.16;5063838;28;20489;-49
2023/03/01 00:53:36;;;;;;;1.57;1.47;;;;;;;0.95;80.44;101360.50;5059838;28;20453;-50
2023/03/01 00:56:03;;;;;;;0.70;0.70;;;;;;;0.94;80.63;101361.34;5061767;28;20451;-49
2023/03/01 00:58:30;;;;;;;1.30;1.20;;;;;;;0.89;79.85;101362.13;5066704;28;20467;-49
2023/03/01 01:00:56;;;;;;;1.60;1.50;;;;;;;1.09;79.49;101357.44;5064747;28;20976;-49
2023/03/01 01:03:24;;;;;;;0.50;0.50;;;;;;;1.14;80.09;101355.84;5061585;28;20471;-49
2023/03/01 01:05:52;;;;;;;6.80;1.60;;;;;;;1.00;80.10;101357.19;5076657;28;20452;-49
2023/03/01 01:08:19;;;;;;;0.60;0.60;;;;;;;0.88;80.69;101349.00;5069513;28;20466;-50
2023/03/01 01:10:47;;;;;;;0.37;0.20;;;;;;;0.80;80.99;101348.78;5064826;28;20464;-49
2023/03/01 01:13:14;;;;;;;3.90;2.13;;;;;;;0.73;80.59;101349.47;5070715;28;20454;-49
2023/03/01 01:15:41;;;;;;;3.97;1.83;;;;;;;0.74;80.36;101356.47;5060712;28;20454;-49
2023/03/01 01:18:07;;;;;;;0.30;0.30;;;;;;;0.72;81.02;101346.81;5066369;28;20474;-49
2023/03/01 01:20:35;;;;;;;0.97;0.97;;;;;;;0.71;81.74;101337.19;5065713;28;20454;-49
2023/03/01 01:23:01;;;;;;;2.10;1.77;;;;;;;0.63;82.95;101329.09;5059240;28;20490;-49
2023/03/01 01:25:28;;;;;;;0.87;0.87;;;;;;;0.69;82.45;101331.91;5058823;28;20535;-49
2023/03/01 01:27:54;;;;;;;1.80;0.77;;;;;;;0.64;82.04;101330.00;5058940;28;20509;-49
2023/03/01 01:30:21;;;;;;;1.10;1.10;;;;;;;0.60;82.02;101326.41;5059769;28;20458;-49
2023/03/01 01:32:47;;;;;;;1.93;1.77;;;;;;;0.64;82.91;101316.91;5066138;28;20497;-49
2023/03/01 01:35:13;;;;;;;0.67;0.67;;;;;;;0.72;82.39;101324.16;5065788;28;20464;-49
2023/03/01 01:37:40;;;;;;;1.57;1.47;;;;;;;0.75;82.05;101321.59;5059046;28;20998;-50
2023/03/01 01:40:07;;;;;;;1.50;1.33;;;;;;;0.74;81.64;101303.25;5059381;28;20449;-50
2023/03/01 01:42:34;;;;;;;1.70;0.80;;;;;;;0.71;82.34;101306.69;5059462;28;20856;-49
2023/03/01 01:45:39;;;;;;;2.20;2.10;;;;;;;0.71;82.59;101309.28;5059242;28;20505;-50
2023/03/01 01:48:12;;;;;;;1.40;0.67;;;;;;;0.71;82.03;101311.91;5033293;28;20513;-50
2023/03/01 01:50:40;;;;;;;2.93;0.57;;;;;;;0.71;82.31;101311.03;5037279;28;20447;-50
2023/03/01 01:53:13;;;;;;;2.13;2.03;;;;;;;0.87;81.08;101310.59;5048202;28;20859;-50
2023/03/01 01:55:44;;;;;;;5.80;2.87;;;;;;;0.82;81.19;101306.94;5065016;28;20478;-50
2023/03/01 01:58:15;;;;;;;4.83;1.30;;;;;;;0.77;82.51;101305.94;5065578;28;21039;-49
2023/03/01 02:00:41;;;;;;;0.50;0.50;;;;;;;0.70;82.08;101315.38;5063090;28;20445;-49
2023/03/01 02:03:12;;;;;;;0.70;0.70;;;;;;;0.81;82.05;101303.44;5067602;28;20954;-50
2023/03/01 02:05:55;;;;;;;2.33;0.50;;;;;;;0.60;82.30;101300.25;5076501;28;20457;-50
2023/03/01 02:08:25;;;;;;;2.73;0.93;;;;;;;0.58;83.25;101291.50;5071934;28;20466;-49
2023/03/01 02:10:52;;;;;;;1.77;1.67;;;;;;;0.52;82.77;101283.44;5069128;28;20823;-49
2023/03/01 02:13:19;;;;;;;2.87;1.87;;;;;;;0.46;83.99;101283.28;5073977;28;20572;-49
2023/03/01 02:15:45;;;;;;;8.23;1.37;;;;;;;0.41;84.52;101288.41;5062901;28;20951;-49
2023/03/01 02:18:16;;;;;;;1.27;1.23;;;;;;;0.37;84.25;101288.25;5063090;28;20473;-49
2023/03/01 02:20:59;;;;;;;1.00;1.00;;;;;;;0.32;83.95;101285.50;5062712;28;20897;-49
2023/03/01 02:23:25;;;;;;;1.57;1.43;;;;;;;0.28;84.96;101281.06;5067078;28;20442;-49
2023/03/01 02:26:18;;;;;;;1.90;1.80;;;;;;;0.36;85.03;101281.25;5069139;28;20521;-49
2023/03/01 02:28:45;;;;;;;1.67;1.67;;;;;;;0.55;83.60;101283.56;5069248;28;20974;-49
2023/03/01 02:34:17;;;;;;;0.77;0.77;;;;;;;0.78;81.93;101278.94;5070091;28;20462;-51
2023/03/01 02:36:55;;;;;;;1.67;1.57;;;;;;;0.54;83.49;101282.66;5068738;28;20458;-50
2023/03/01 02:39:30;;;;;;;1.60;0.40;;;;;;;0.74;82.13;101283.22;5063619;28;20533;-50
2023/03/01 02:41:58;;;;;;;2.33;2.23;;;;;;;0.51;83.26;101276.44;5073879;28;20444;-48
2023/03/01 02:44:25;;;;;;;2.10;1.90;;;;;;;0.47;83.68;101278.09;5064888;28;20458;-48
2023/03/01 02:46:54;;;;;;;2.00;1.90;;;;;;;0.31;84.14;101267.16;5062009;28;21044;-50
2023/03/01 02:49:27;;;;;;;1.57;1.47;;;;;;;0.26;84.55;101262.69;5066376;28;20442;-49
2023/03/01 02:52:28;;;;;;;2.50;1.40;;;;;;;0.40;84.72;101270.03;5069148;28;20498;-49
2023/03/01 02:55:04;;;;;;;1.60;1.00;;;;;;;0.33;84.29;101265.47;5068672;28;20466;-49
2023/03/01 02:57:33;;;;;;;2.23;1.97;;;;;;;0.22;85.31;101262.56;5065556;28;20468;-48
2023/03/01 03:00:06;;;;;;;2.57;1.60;;;;;;;0.46;85.00;101263.25;5062053;28;20445;-49
2023/03/01 03:02:37;;;;;;;5.73;2.70;;;;;;;0.63;83.72;101255.88;5069096;28;20491;-49
2023/03/01 03:05:17;;;;;;;1.17;0.80;;;;;;;0.52;83.71;101255.56;5066846;28;20490;-50
2023/03/01 03:07:46;;;;;;;5.37;2.10;;;;;;;0.61;84.18;101249.72;5081927;28;20465;-50
2023/03/01 03:10:26;;;;;;;1.77;1.67;;;;;;;0.77;82.49;101241.41;5062468;28;20442;-49
2023/03/01 03:12:58;;;;;;;0.93;0.93;;;;;;;0.58;83.88;101239.19;5071581;28;20497;-49
2023/03/01 03:15:26;;;;;;;3.43;2.00;;;;;;;0.52;84.48;101236.38;5065593;28;20447;-49
2023/03/01 03:17:54;;;;;;;1.23;1.13;;;;;;;0.34;85.41;101226.31;5068167;28;21026;-49
2023/03/01 03:20:23;;;;;;;1.67;1.43;;;;;;;0.14;85.13;101230.09;5065527;28;20537;-49
2023/03/01 03:22:51;;;;;;;1.87;1.77;;;;;;;0.41;86.21;101230.88;5061817;28;20445;-49
2023/03/01 03:25:19;;;;;;;2.50;2.40;;;;;;;0.40;85.07;101225.56;5063853;28;20453;-49
2023/03/01 03:27:48;;;;;;;1.33;1.17;;;;;;;0.28;86.17;101213.97;5068122;28;20489;-49
2023/03/01 03:30:18;;;;;;;1.97;1.87;;;;;;;0.40;85.01;101218.59;5066876;28;21023;-49
2023/03/01 03:32:51;;;;;;;0.97;0.97;;;;;;;0.30;85.64;101227.06;5056219;28;20501;-49
2023/03/01 03:35:29;;;;;;;1.57;1.47;;;;;;;0.34;86.24;101220.19;5068152;28;20814;-49
2023/03/01 03:38:02;;;;;;;0.40;0.40;;;;;;;0.29;85.52;101213.13;5063397;28;20462;-49
2023/03/01 03:40:40;;;;;;;0.60;0.60;;;;;;;0.42;85.58;101214.34;5061266;28;20466;-49
2023/03/01 03:43:09;;;;;;;1.40;0.80;;;;;;;0.38;84.98;101222.03;5063937;28;20470;-49
2023/03/01 03:45:36;;;;;;;6.30;3.70;;;;;;;0.33;86.17;101214.06;5068268;28;20830;-49
2023/03/01 03:48:05;;;;;;;1.97;1.70;;;;;;;0.66;85.04;101210.59;5065649;28;20474;-49
2023/03/01 03:50:32;;;;;;;1.13;1.10;;;;;;;0.71;84.04;101209.88;5061072;28;20541;-50
2023/03/01 03:53:01;;;;;;;1.47;1.37;;;;;;;0.83;84.06;101199.72;5062725;28;20490;-49
2023/03/01 03:55:30;;;;;;;1.93;1.67;;;;;;;1.09;82.38;101195.13;5067854;28;20450;-49
2023/03/01 03:58:01;;;;;;;3.13;0.73;;;;;;;0.88;83.35;101199.84;5067499;28;20476;-49
2023/03/01 04:00:28;;;;;;;2.67;1.27;;;;;;;0.88;83.33;101186.75;5061670;28;20446;-49
2023/03/01 04:02:56;;;;;;;4.10;2.53;;;;;;;0.91;83.25;101183.31;5067608;28;20444;-49
2023/03/01 04:05:23;;;;;;;1.47;1.37;;;;;;;1.05;83.08;101176.69;5061967;28;20453;-50
2023/03/01 04:08:01;;;;;;;2.70;2.50;;;;;;;0.97;82.98;101175.63;5060755;28;20479;-51
2023/03/01 04:10:32;;;;;;;1.00;0.77;;;;;;;1.07;82.25;101172.38;5064885;28;21024;-49
2023/03/01 04:12:59;;;;;;;2.50;1.90;;;;;;;1.09;82.82;101179.41;5070611;28;20558;-49
2023/03/01 04:15:27;;;;;;;0.97;0.97;;;;;;;0.99;83.44;101180.06;5064109;28;20454;-49
2023/03/01 04:17:54;;;;;;;1.20;1.20;;;;;;;0.87;83.27;101167.56;5067225;28;20467;-49
2023/03/01 04:20:26;;;;;;;0.87;0.87;;;;;;;0.96;83.59;101177.38;5064198;28;20450;-49
2023/03/01 04:22:59;;;;;;;1.60;0.90;;;;;;;0.92;83.04;101190.31;5060566;28;21001;-50
2023/03/01 04:25:26;;;;;;;2.83;1.20;;;;;;;1.13;82.08;101193.47;5061802;28;20472;-49
2023/03/01 04:27:52;;;;;;;1.60;1.50;;;;;;;1.19;81.41;101185.75;5067493;28;20481;-50
2023/03/01 04:30:19;;;;;;;4.00;1.80;;;;;;;1.07;82.19;101188.09;5065687;28;20450;-49
2023/03/01 04:32:45;;;;;;;20.97;3.03;;;;;;;1.27;81.76;101189.47;5055805;28;20987;-49
2023/03/01 04:35:11;;;;;;;2.63;2.53;;;;;;;1.14;81.07;101188.28;5065616;28;20449;-49
2023/03/01 04:37:38;;;;;;;0.60;0.60;;;;;;;1.25;81.61;101196.41;5060018;28;20470;-49
2023/03/01 04:40:15;;;;;;;1.37;1.37;;;;;;;1.13;81.41;101191.75;5061790;28;20446;-48
2023/03/01 04:42:43;;;;;;;1.40;1.40;;;;;;;1.11;82.65;101187.34;5060675;28;20536;-50
2023/03/01 04:45:13;;;;;;;1.83;0.80;;;;;;;1.05;82.24;101195.91;5059680;28;20450;-50
2023/03/01 04:47:46;;;;;;;2.17;1.40;;;;;;;0.95;83.46;101185.16;5066091;28;20482;-50
2023/03/01 04:50:16;;;;;;;1.90;1.80;;;;;;;0.91;83.27;101192.06;5066730;28;20499;-50
2023/03/01 04:52:43;;;;;;;2.00;1.90;;;;;;;0.84;83.67;101204.13;5062908;28;20485;-50
2023/03/01 04:55:10;;;;;;;0.60;0.60;;;;;;;0.70;83.48;101194.16;5068701;28;20882;-50
2023/03/01 04:57:37;;;;;;;3.17;3.07;;;;;;;0.75;84.35;101187.28;5063216;28;20844;-50
2023/03/01 05:00:20;;;;;;;3.43;1.77;;;;;;;0.67;84.61;101189.69;5059477;28;20446;-49
2023/03/01 05:02:53;;;;;;;1.57;0.87;;;;;;;0.56;84.13;101186.81;5068057;28;20535;-50
2023/03/01 05:05:39;;;;;;;1.93;1.53;;;;;;;0.70;84.36;101186.28;5080319;28;20448;-50
2023/03/01 05:08:07;;;;;;;2.37;2.20;;;;;;;0.75;84.10;101184.69;5072740;28;20504;-49
2023/03/01 05:10:36;;;;;;;1.63;1.53;;;;;;;0.72;84.51;101180.25;5063601;28;20460;-50
2023/03/01 05:13:03;;;;;;;0.90;0.87;;;;;;;0.63;84.13;101189.59;5070059;28;20532;-50
2023/03/01 05:15:31;;;;;;;2.80;2.30;;;;;;;0.57;84.75;101188.59;5062483;28;20454;-50
2023/03/01 05:17:59;;;;;;;2.90;2.53;;;;;;;0.60;83.94;101185.16;5066133;28;20537;-50
2023/03/01 05:20:26;;;;;;;2.07;0.73;;;;;;;0.44;85.28;101181.25;5063702;28;20946;-50
2023/03/01 05:22:57;;;;;;;1.40;1.40;;;;;;;0.45;85.17;101175.19;5059231;28;20464;-50
2023/03/01 05:25:23;;;;;;;1.43;1.33;;;;;;;0.46;84.44;101183.91;5061087;28;20450;-49
2023/03/01 05:27:50;;;;;;;3.20;2.13;;;;;;;0.37;84.97;101183.66;5066303;28;20554;-50
2023/03/01 05:30:17;;;;;;;2.37;1.60;;;;;;;0.40;85.76;101192.47;5064709;28;20954;-50
2023/03/01 05:32:49;;;;;;;2.17;2.07;;;;;;;0.35;85.58;101186.25;5054460;28;20512;-50
2023/03/01 05:35:17;;;;;;;1.97;1.50;;;;;;;0.12;86.02;101187.31;5064456;28;20446;-50
2023/03/01 05:37:45;;;;;;;1.57;1.47;;;;;;;0.21;86.19;101188.47;5059010;28;20524;-49
2023/03/01 05:40:15;;;;;;;2.97;1.67;;;;;;;0.23;86.67;101183.28;5059485;28;20894;-49
2023/03/01 05:42:54;;;;;;;0.50;0.40;;;;;;;0.14;86.59;101181.31;5064793;28;20866;-49
2023/03/01 05:45:22;;;;;;;12.17;1.40;;;;;;;0.15;85.85;101177.88;5065935;28;20481;-49
2023/03/01 05:47:50;;;;;;;1.03;1.03;;;;;;;0.06;86.63;101187.16;5061970;28;20891;-49
2023/03/01 05:50:23;;;;;;;0.50;0.50;;;;;;;0.01;87.18;101183.56;5059191;28;20507;-49
2023/03/01 05:52:52;;;;;;;2.33;1.43;;;;;;;0.10;86.74;101178.56;5060711;28;20565;-49
2023/03/01 05:55:20;;;;;;;0.90;0.90;;;;;;;0.06;87.72;101182.81;5065624;28;20458;-49
2023/03/01 05:57:47;;;;;;;6.90;2.00;;;;;;;0.05;87.25;101188.00;5064296;28;20462;-49
2023/03/01 06:00:16;;;;;;;2.03;1.93;;;;;;;0.15;87.41;101188.31;5058757;28;20941;-49
2023/03/01 06:02:43;;;;;;;1.03;1.00;;;;;;;-0.07;87.76;101191.16;5059517;28;20592;-49
2023/03/01 06:05:11;;;;;;;2.50;2.13;;;;;;;-0.06;87.72;101193.81;5076622;28;20991;-49
2023/03/01 06:07:38;;;;;;;2.63;2.00;;;;;;;-0.01;88.12;101186.97;5079535;28;20473;-49
2023/03/01 06:10:06;;;;;;;2.00;1.33;;;;;;;0.13;87.05;101184.75;5059057;28;20458;-49
2023/03/01 06:12:34;;;;;;;5.87;2.60;;;;;;;0.08;86.51;101175.03;5069511;28;20489;-49
2023/03/01 06:15:01;;;;;;;3.07;2.97;;;;;;;0.03;87.50;101176.63;5058942;28;20454;-48
2023/03/01 06:17:37;;;;;;;2.00;1.30;;;;;;;-0.01;88.13;101186.09;5058692;28;20477;-49
2023/03/01 06:20:05;;;;;;;1.13;0.53;;;;;;;-0.03;87.63;101187.78;5064504;28;20443;-48
2023/03/01 06:22:32;;;;;;;0.70;0.70;;;;;;;-0.07;87.68;101186.81;5065376;28;20500;-49
2023/03/01 06:24:58;;;;;;;1.83;0.90;;;;;;;-0.12;88.27;101180.59;5059479;28;20496;-49
2023/03/01 06:27:25;;;;;;;1.80;1.70;;;;;;;-0.08;87.78;101186.78;5058439;28;20470;-49
2023/03/01 06:29:53;;;;;;;2.87;1.23;;;;;;;-0.07;88.18;101180.69;5063955;28;20457;-49
2023/03/01 06:32:19;;;;;;;1.40;1.30;;;;;;;-0.23;88.33;101182.00;5065513;28;20817;-48
2023/03/01 06:34:46;;;;;;;1.37;1.37;;;;;;;-0.21;88.80;101177.69;5060818;28;20496;-48
2023/03/01 06:37:12;;;;;;;0.87;0.87;;;;;;;-0.13;88.89;101178.81;5058624;28;20558;-50
2023/03/01 06:39:39;;;;;;;5.30;1.20;;;;;;;0.01;88.90;101168.75;5063220;28;20500;-49
2023/03/01 06:42:06;;;;;;;0.50;0.50;;;;;;;0.10;88.24;101179.44;5065149;28;20453;-49
2023/03/01 06:44:33;;;;;;;1.00;1.00;;;;;;;0.20;87.24;101178.88;5061280;28;20437;-49
2023/03/01 06:46:59;;;;;;;3.70;1.40;;;;;;;0.37;87.35;101165.34;5060327;28;20557;-48
2023/03/01 06:49:26;;;;;;;1.17;1.17;;;;;;;0.89;86.30;101168.47;5066086;28;20492;-48
2023/03/01 06:51:53;;;;;;;3.33;2.40;;;;;;;0.64;84.55;101167.81;5069241;28;20446;-48
2023/03/01 06:54:21;;;;;;;2.50;2.30;;;;;;;0.57;85.32;101157.22;5064629;28;20489;-49
2023/03/01 06:56:49;;;;;;;3.80;1.70;;;;;;;0.58;85.43;101161.59;5062020;28;20873;-48
2023/03/01 06:59:16;;;;;;;2.80;1.80;;;;;;;0.66;84.95;101164.38;5066009;28;20960;-49
2023/03/01 07:01:43;;;;;;;2.00;1.90;;;;;;;0.76;84.88;101157.66;5068858;28;20458;-48
2023/03/01 07:04:11;;;;;;;2.27;2.17;;;;;;;0.80;84.11;101160.38;5063360;28;20446;-48
2023/03/01 07:06:37;;;;;;;35.40;1.93;;;;;;;0.86;84.01;101165.78;5086662;28;20450;-48
2023/03/01 07:09:04;;;;;;;1.90;1.80;;;;;;;0.91;84.01;101159.78;5063796;28;20958;-49
2023/03/01 07:11:30;;;;;;;4.97;2.70;;;;;;;1.06;83.94;101162.75;5070734;28;20485;-48
2023/03/01 07:13:58;;;;;;;0.70;0.70;;;;;;;1.14;82.98;101164.72;5075356;28;20495;-49
2023/03/01 07:16:24;;;;;;;3.03;2.63;;;;;;;1.19;82.73;101167.44;5061523;28;20456;-49
2023/03/01 07:18:51;;;;;;;3.20;2.40;;;;;;;1.22;82.69;101164.88;5063223;28;20458;-49
2023/03/01 07:21:17;;;;;;;1.70;1.60;;;;;;;1.24;82.70;101160.59;5067243;28;20516;-48
2023/03/01 07:23:46;;;;;;;2.97;2.60;;;;;;;1.34;82.59;101164.28;5066696;28;20453;-49
2023/03/01 07:26:13;;;;;;;2.00;1.90;;;;;;;1.43;82.01;101154.03;5061605;28;20946;-49
2023/03/01 07:28:39;;;;;;;4.13;0.70;;;;;;;1.52;81.43;101154.25;5062494;28;20558;-51
2023/03/01 07:31:06;;;;;;;1.23;1.23;;;;;;;1.58;80.48;101162.22;5068047;28;20455;-48
2023/03/01 07:33:33;;;;;;;2.80;2.70;;;;;;;1.71;81.62;101145.03;5055623;28;20487;-48
2023/03/01 07:36:02;;;;;;;1.73;1.60;;;;;;;1.83;80.88;101147.03;5066946;28;20450;-49
2023/03/01 07:38:28;;;;;;;2.30;2.00;;;;;;;1.97;79.83;101141.19;5067598;28;21050;-48
2023/03/01 07:41:03;;;;;;;2.80;2.60;;;;;;;2.12;79.88;101140.63;5061499;28;20450;-52
2023/03/01 07:43:30;;;;;;;3.53;3.33;;;;;;;2.16;79.02;101136.31;5060889;28;20540;-49
2023/03/01 07:46:00;;;;;;;1.40;1.40;;;;;;;2.06;79.15;101144.00;5066828;28;20447;-49
2023/03/01 07:48:28;;;;;;;1.37;1.37;;;;;;;2.01;78.19;101142.13;5068442;28;20556;-49
2023/03/01 07:50:58;;;;;;;3.70;1.73;;;;;;;2.00;77.89;101138.63;5063163;28;20511;-49
2023/03/01 07:53:25;;;;;;;1.33;0.70;;;;;;;2.08;78.02;101142.31;5061300;28;20486;-49
2023/03/01 07:56:06;;;;;;;2.97;1.80;;;;;;;2.34;78.34;101134.06;5064983;28;20453;-49
2023/03/01 07:58:38;;;;;;;2.43;1.53;;;;;;;2.31;76.90;101142.72;5066868;28;20466;-49
2023/03/01 08:01:06;;;;;;;0.90;0.90;;;;;;;2.46;76.87;101139.50;5066418;28;20442;-49
2023/03/01 08:03:33;;;;;;;1.37;1.10;;;;;;;2.66;76.67;101131.97;5062487;28;20504;-49
2023/03/01 08:06:01;;;;;;;0.70;0.60;;;;;;;2.71;75.94;101135.56;5079906;28;20445;-49
2023/03/01 08:08:28;;;;;;;1.97;1.77;;;;;;;2.62;74.61;101135.44;5069052;28;20518;-49
2023/03/01 08:11:02;;;;;;;2.43;2.23;;;;;;;2.56;75.57;101133.56;5067172;28;20450;-49
2023/03/01 08:13:29;;;;;;;2.37;1.53;;;;;;;2.79;74.00;101122.56;5072607;28;20486;-50
2023/03/01 08:16:02;;;;;;;3.50;2.83;;;;;;;2.90;74.05;101131.50;5060340;28;20815;-49
2023/03/01 08:18:28;;;;;;;5.93;2.00;;;;;;;3.01;74.64;101124.66;5065109;28;20806;-49
2023/03/01 08:20:55;;;;;;;3.60;2.27;;;;;;;2.97;73.70;101130.72;5067327;28;20450;-48
2023/03/01 08:23:21;;;;;;;1.13;0.97;;;;;;;3.01;72.84;101135.16;5062649;28;20450;-49
2023/03/01 08:25:48;;;;;;;3.33;2.30;;;;;;;2.91;73.10;101134.16;5058998;28;20446;-49
2023/03/01 08:28:14;;;;;;;1.53;1.43;;;;;;;3.13;73.22;101129.22;5064419;28;20478;-48
2023/03/01 08:30:40;;;;;;;6.10;1.63;;;;;;;3.06;72.24;101130.88;5066995;28;20461;-48
2023/03/01 08:33:07;;;;;;;1.10;1.10;;;;;;;3.14;73.29;101118.75;5053680;28;20496;-50
2023/03/01 08:35:33;;;;;;;6.97;1.60;;;;;;;3.19;72.78;101122.34;5067097;28;20469;-49
2023/03/01 08:38:00;;;;;;;17.47;2.47;;;;;;;3.22;72.88;101117.13;5062661;28;20497;-49
2023/03/01 08:40:26;;;;;;;6.63;2.47;;;;;;;3.16;72.53;101118.78;5060073;28;20461;-48
2023/03/01 08:42:52;;;;;;;3.23;1.47;;;;;;;3.14;72.24;101121.38;5063711;28;20451;-49
2023/03/01 08:45:19;;;;;;;2.63;2.43;;;;;;;3.19;72.02;101119.72;5066971;28;20450;-48
2023/03/01 08:47:45;;;;;;;3.30;3.10;;;;;;;3.26;71.64;101118.03;5063081;28;20557;-49
2023/03/01 08:50:12;;;;;;;2.23;2.10;;;;;;;3.31;71.00;101112.88;5059968;28;20457;-49
2023/03/01 08:52:38;;;;;;;1.20;1.17;;;;;;;3.30;71.31;101116.38;5063704;28;20447;-49
2023/03/01 08:55:05;;;;;;;2.13;1.77;;;;;;;3.33;71.14;101122.53;5066614;28;20508;-48
2023/03/01 08:57:32;;;;;;;1.33;1.23;;;;;;;3.34;70.57;101115.53;5062654;28;20469;-48
2023/03/01 08:59:58;;;;;;;3.53;2.30;;;;;;;3.48;70.31;101095.59;5058553;28;20450;-49
2023/03/01 09:02:24;;;;;;;4.10;2.63;;;;;;;3.39;70.23;101114.72;5067156;28;21000;-49
2023/03/01 09:04:51;;;;;;;2.73;2.00;;;;;;;3.57;70.29;101098.34;5063282;28;20520;-50
2023/03/01 09:07:17;;;;;;;2.60;2.30;;;;;;;3.63;70.55;101092.25;5083124;28;20470;-49
2023/03/01 09:09:44;;;;;;;1.20;1.20;;;;;;;3.92;69.55;101093.50;5059469;28;20524;-50
2023/03/01 09:12:10;;;;;;;2.53;2.10;;;;;;;3.84;68.64;101088.16;5070430;28;20500;-49
2023/03/01 09:14:38;;;;;;;4.63;4.33;;;;;;;3.70;68.95;101079.22;5069591;28;20501;-49
2023/03/01 09:17:04;;;;;;;3.80;2.00;;;;;;;4.02;69.39;101086.59;5063686;28;20477;-50
2023/03/01 09:19:31;;;;;;;1.40;1.20;;;;;;;3.84;68.27;101079.41;5059459;28;20864;-49
2023/03/01 09:21:58;;;;;;;1.90;1.80;;;;;;;4.02;68.15;101083.97;5062383;28;20485;-50
2023/03/01 09:24:25;;;;;;;2.00;1.63;;;;;;;4.15;68.02;101084.13;5065887;28;20446;-49
2023/03/01 09:26:55;;;;;;;11.37;2.67;;;;;;;4.13;67.91;101090.22;5063810;28;20470;-51
2023/03/01 09:29:22;;;;;;;2.60;2.40;;;;;;;4.14;68.55;101081.47;5059379;28;20446;-49
2023/03/01 09:31:49;;;;;;;4.03;3.83;;;;;;;4.14;67.70;101084.09;5061321;28;20446;-49
2023/03/01 09:34:19;;;;;;;3.43;3.13;;;;;;;4.30;67.90;101080.75;5058301;28;20516;-49
2023/03/01 09:36:45;;;;;;;2.50;2.40;;;;;;;4.29;66.72;101084.25;5060608;28;20479;-49
2023/03/01 09:39:11;;;;;;;3.60;1.70;;;;;;;4.40;66.29;101076.47;5065729;28;20450;-49
2023/03/01 09:41:52;;;;;;;2.13;2.00;;;;;;;4.36;66.50;101080.78;5064883;28;20897;-49
2023/03/01 09:45:07;;;;;;;2.17;1.90;;;;;;;4.47;67.13;101073.00;5060357;28;20438;-50
2023/03/01 09:47:36;;;;;;;4.97;2.73;;;;;;;4.56;66.79;101074.84;5063111;28;20486;-49
2023/03/01 09:50:14;;;;;;;3.73;1.53;;;;;;;4.55;66.01;101075.72;5065894;28;20533;-49
2023/03/01 09:52:54;;;;;;;2.20;2.10;;;;;;;4.64;66.25;101073.13;5062397;28;20818;-50
2023/03/01 09:55:27;;;;;;;1.33;1.23;;;;;;;4.82;66.34;101069.78;5058980;28;20494;-49
2023/03/01 09:58:23;;;;;;;4.90;3.07;;;;;;;4.89;65.91;101067.19;5060028;28;20467;-50
2023/03/01 10:00:50;;;;;;;1.60;1.43;;;;;;;4.85;65.59;101064.53;5063494;28;20448;-50
2023/03/01 10:03:20;;;;;;;2.17;1.77;;;;;;;5.19;65.25;101068.25;5062166;28;20454;-49
2023/03/01 10:06:08;;;;;;;2.40;2.20;;;;;;;5.23;64.46;101059.50;5063353;28;20503;-50
2023/03/01 10:08:41;;;;;;;7.37;3.03;;;;;;;5.00;62.52;101068.16;5059911;28;20470;-49
2023/03/01 10:11:30;;;;;;;2.40;2.20;;;;;;;5.21;63.96;101056.88;5058912;28;20489;-49
2023/03/01 10:14:11;;;;;;;8.13;2.23;;;;;;;5.05;63.08;101053.25;5063961;28;21006;-49
2023/03/01 10:16:43;;;;;;;4.37;3.03;;;;;;;5.18;62.32;101045.41;5059180;28;20460;-50
2023/03/01 10:19:16;;;;;;;4.50;3.20;;;;;;;5.45;62.89;101052.56;5058666;28;20954;-50
2023/03/01 10:21:45;;;;;;;4.30;2.30;;;;;;;5.42;61.75;101047.28;5065251;28;20446;-49
2023/03/01 10:24:15;;;;;;;3.57;2.47;;;;;;;5.48;62.56;101039.41;5069744;28;20536;-49
2023/03/01 10:26:48;;;;;;;2.47;2.27;;;;;;;5.48;61.46;101037.69;5066490;28;20449;-49
2023/03/01 10:29:15;;;;;;;1.77;1.67;;;;;;;5.32;61.75;101034.06;5072273;28;20446;-50
2023/03/01 10:31:48;;;;;;;3.43;3.20;;;;;;;5.79;61.33;101029.88;5067100;28;20868;-49
2023/03/01 10:34:20;;;;;;;2.13;2.03;;;;;;;5.72;60.21;101020.16;5062517;28;20486;-50
2023/03/01 10:36:52;;;;;;;2.20;2.10;;;;;;;5.51;60.31;101011.31;5063851;28;20503;-50
2023/03/01 10:39:24;;;;;;;6.17;5.03;;;;;;;5.50;61.03;101014.81;5069459;28;20545;-49
2023/03/01 10:42:18;;;;;;;4.00;3.70;;;;;;;5.74;61.56;101015.75;5069324;28;20548;-49
2023/03/01 10:44:48;;;;;;;4.27;3.17;;;;;;;5.80;60.66;101008.75;5066708;28;20442;-50
2023/03/01 10:47:20;;;;;;;3.27;2.30;;;;;;;5.85;61.16;101006.13;5081117;22;20961;-53
2023/03/01 10:49:56;;;;;;;32.40;5.47;;;;;;;5.67;60.56;101003.44;5083420;28;20508;-51
2023/03/01 10:52:26;;;;;;;2.77;2.17;;;;;;;5.96;60.72;100993.88;5082915;28;20823;-52
2023/03/01 10:55:15;;;;;;;2.60;2.50;;;;;;;5.90;60.10;100993.88;5094978;28;20492;-53
2023/03/01 10:57:42;;;;;;;2.70;2.20;;;;;;;5.84;60.20;100994.69;5078134;28;20475;-52
2023/03/01 11:00:19;;;;;;;4.23;3.73;;;;;;;5.75;60.10;100993.78;5095698;28;20498;-53
2023/03/01 11:02:59;;;;;;;3.43;3.23;;;;;;;5.89;60.68;100995.59;5095695;28;20443;-52
2023/03/01 11:05:28;;;;;;;3.40;3.10;;;;;;;5.93;59.17;100989.47;5095451;28;20528;-53
2023/03/01 11:07:56;;;;;;;4.50;3.07;;;;;;;6.06;61.05;100986.84;5095359;28;20479;-52
2023/03/01 11:10:32;;;;;;;4.27;3.97;;;;;;;5.89;60.20;100982.41;5095437;28;20445;-53
2023/03/01 11:13:08;;;;;;;2.00;1.30;;;;;;;5.89;59.33;100977.13;5095067;28;20484;-53
2023/03/01 11:15:35;;;;;;;2.17;2.00;;;;;;;6.13;60.29;100981.56;5095375;28;20533;-52
2023/03/01 11:18:02;;;;;;;2.30;1.57;;;;;;;6.04;59.91;100989.50;5095174;28;20496;-53
2023/03/01 11:20:39;;;;;;;2.60;2.00;;;;;;;5.95;60.49;100973.66;5095276;28;20441;-53
2023/03/01 11:23:12;;;;;;;3.83;3.73;;;;;;;6.29;60.04;100977.16;5094928;28;20475;-53
2023/03/01 11:26:00;;;;;;;8.30;3.53;;;;;;;6.10;60.26;100978.94;5095066;28;20498;-52
2023/03/01 11:28:28;;;;;;;12.73;3.80;;;;;;;6.02;58.95;100975.41;5094888;28;20465;-52
2023/03/01 11:30:57;;;;;;;3.83;3.50;;;;;;;6.12;58.99;100976.28;5094803;28;21012;-52
2023/03/01 11:33:36;;;;;;;1.40;1.30;;;;;;;6.17;60.26;100978.06;5093545;28;20445;-53
2023/03/01 11:36:15;;;;;;;4.87;2.10;;;;;;;6.10;59.71;100981.56;5094788;28;20866;-53
2023/03/01 11:38:43;;;;;;;4.80;3.70;;;;;;;6.30;59.13;100964.84;5094656;28;20493;-53
2023/03/01 11:41:21;;;;;;;3.90;2.50;;;;;;;6.40;59.72;100961.31;5094807;28;20879;-52
2023/03/01 11:43:53;;;;;;;4.20;3.17;;;;;;;6.22;58.85;100962.22;5094535;28;20820;-52
2023/03/01 11:46:31;;;;;;;4.17;3.93;;;;;;;6.53;60.06;100953.41;5094635;28;20457;-53
2023/03/01 11:49:19;;;;;;;3.57;3.27;;;;;;;6.75;56.77;100942.81;5094342;28;20479;-53